createdAt,value
2018-07-01T00:00:56.971Z,994.1
2018-07-01T00:02:06.507Z,994.1
2018-07-01T00:03:16.319Z,994.1
2018-07-01T00:04:26.399Z,994.1
2018-07-01T00:05:36.198Z,994.12
2018-07-01T00:06:46.310Z,994.1
2018-07-01T00:07:56.111Z,994.12
2018-07-01T00:09:06.166Z,994.16
2018-07-01T00:10:15.958Z,994.18
2018-07-01T00:11:25.761Z,994.16
2018-07-01T00:12:35.879Z,994.2
2018-07-01T00:13:45.961Z,994.21
2018-07-01T00:14:55.771Z,994.18
2018-07-01T00:16:05.577Z,994.2
2018-07-01T00:17:15.215Z,994.23
2018-07-01T00:18:25.063Z,994.2
2018-07-01T00:19:34.861Z,994.22
2018-07-01T00:20:44.924Z,994.22
2018-07-01T00:21:54.993Z,994.26
2018-07-01T00:23:04.805Z,994.25
2018-07-01T00:24:14.408Z,994.3
2018-07-01T00:25:23.922Z,994.27
2018-07-01T00:26:33.731Z,994.32
2018-07-01T00:27:43.516Z,994.35
2018-07-01T00:28:53.320Z,994.35
2018-07-01T00:30:03.181Z,994.34
2018-07-01T00:31:12.704Z,994.34
2018-07-01T00:32:22.766Z,994.36
2018-07-01T00:33:32.841Z,994.37
2018-07-01T00:34:42.635Z,994.37
2018-07-01T00:35:52.771Z,994.38
2018-07-01T00:37:02.862Z,994.37
2018-07-01T00:38:12.944Z,994.39
2018-07-01T00:39:23.013Z,994.39
2018-07-01T00:40:33.100Z,994.33
2018-07-01T00:41:42.675Z,994.32
2018-07-01T00:42:52.747Z,994.35
2018-07-01T00:44:01.997Z,994.32
2018-07-01T00:45:12.066Z,994.36
2018-07-01T00:46:22.121Z,994.37
2018-07-01T00:47:32.230Z,994.37
2018-07-01T00:48:42.021Z,994.34
2018-07-01T00:49:51.539Z,994.35
2018-07-01T00:51:01.614Z,994.39
2018-07-01T00:52:11.408Z,994.41
2018-07-01T00:53:21.510Z,994.38
2018-07-01T00:54:31.362Z,994.41
2018-07-01T00:55:41.149Z,994.41
2018-07-01T00:56:51.207Z,994.4
2018-07-01T00:58:00.992Z,994.39
2018-07-01T00:59:10.552Z,994.45
2018-07-01T01:00:20.363Z,994.46
2018-07-01T01:01:30.155Z,994.43
2018-07-01T01:02:39.947Z,994.51
2018-07-01T01:03:49.749Z,994.51
2018-07-01T01:04:59.331Z,994.53
2018-07-01T01:06:09.142Z,994.55
2018-07-01T01:07:19.205Z,994.56
2018-07-01T01:08:29.267Z,994.57
2018-07-01T01:09:39.063Z,994.62
2018-07-01T01:10:49.192Z,994.65
2018-07-01T01:11:59.261Z,994.63
2018-07-01T01:13:09.048Z,994.63
2018-07-01T01:14:18.304Z,994.66
2018-07-01T01:15:28.393Z,994.7
2018-07-01T01:16:38.245Z,994.71
2018-07-01T01:17:48.041Z,994.74
2018-07-01T01:18:58.126Z,994.75
2018-07-01T01:20:07.937Z,994.74
2018-07-01T01:21:18.031Z,994.73
2018-07-01T01:22:28.154Z,994.72
2018-07-01T01:23:37.942Z,994.74
2018-07-01T01:24:48.005Z,994.72
2018-07-01T01:25:57.531Z,994.67
2018-07-01T01:27:07.329Z,994.71
2018-07-01T01:28:17.438Z,994.69
2018-07-01T01:29:27.494Z,994.71
2018-07-01T01:30:36.743Z,994.75
2018-07-01T01:31:46.269Z,994.71
2018-07-01T01:32:56.331Z,994.71
2018-07-01T01:34:06.202Z,994.75
2018-07-01T01:35:15.727Z,994.68
2018-07-01T01:36:25.503Z,994.72
2018-07-01T01:37:35.570Z,994.7
2018-07-01T01:38:45.637Z,994.72
2018-07-01T01:39:55.763Z,994.71
2018-07-01T01:41:05.824Z,994.73
2018-07-01T01:42:15.889Z,994.73
2018-07-01T01:43:25.133Z,994.71
2018-07-01T01:44:35.200Z,994.69
2018-07-01T01:45:45.051Z,994.73
2018-07-01T01:46:55.133Z,994.75
2018-07-01T01:48:04.942Z,994.77
2018-07-01T01:49:14.736Z,994.78
2018-07-01T01:50:24.575Z,994.81
2018-07-01T01:51:34.697Z,994.81
2018-07-01T01:52:44.744Z,994.81
2018-07-01T01:53:54.805Z,994.82
2018-07-01T01:55:04.615Z,994.83
2018-07-01T01:56:14.681Z,994.83
2018-07-01T01:57:24.530Z,994.83
2018-07-01T01:58:34.055Z,994.81
2018-07-01T01:59:43.840Z,994.77
2018-07-01T02:00:53.373Z,994.81
2018-07-01T02:02:03.157Z,994.82
2018-07-01T02:03:13.281Z,994.8
2018-07-01T02:04:23.340Z,994.8
2018-07-01T02:05:33.416Z,994.82
2018-07-01T02:06:43.225Z,994.84
2018-07-01T02:07:53.323Z,994.83
2018-07-01T02:09:03.431Z,994.84
2018-07-01T02:10:13.230Z,994.88
2018-07-01T02:11:23.284Z,994.87
2018-07-01T02:12:33.076Z,994.85
2018-07-01T02:13:43.126Z,994.85
2018-07-01T02:14:53.261Z,994.85
2018-07-01T02:16:03.053Z,994.87
2018-07-01T02:17:12.621Z,994.81
2018-07-01T02:18:22.727Z,994.83
2018-07-01T02:19:32.235Z,994.85
2018-07-01T02:20:42.350Z,994.87
2018-07-01T02:21:52.134Z,994.89
2018-07-01T02:23:02.201Z,994.91
2018-07-01T02:24:11.992Z,994.93
2018-07-01T02:25:21.803Z,994.87
2018-07-01T02:26:31.361Z,994.89
2018-07-01T02:27:41.407Z,994.87
2018-07-01T02:28:51.472Z,994.88
2018-07-01T02:30:01.535Z,994.85
2018-07-01T02:31:11.633Z,994.87
2018-07-01T02:32:21.477Z,994.91
2018-07-01T02:33:31.303Z,994.9
2018-07-01T02:34:41.360Z,994.89
2018-07-01T02:35:51.420Z,994.88
2018-07-01T02:37:00.940Z,994.91
2018-07-01T02:38:11.071Z,994.94
2018-07-01T02:39:21.136Z,994.93
2018-07-01T02:40:30.388Z,994.95
2018-07-01T02:41:40.457Z,994.97
2018-07-01T02:42:50.546Z,994.99
2018-07-01T02:44:00.662Z,994.96
2018-07-01T02:45:10.717Z,994.96
2018-07-01T02:46:20.523Z,994.96
2018-07-01T02:47:30.329Z,994.94
2018-07-01T02:48:40.134Z,995.01
2018-07-01T02:49:50.243Z,995
2018-07-01T02:51:00.050Z,994.98
2018-07-01T02:52:09.842Z,994.98
2018-07-01T02:53:19.949Z,995
2018-07-01T02:54:29.749Z,995.01
2018-07-01T02:55:39.859Z,994.99
2018-07-01T02:56:49.927Z,995.03
2018-07-01T02:57:59.456Z,995.03
2018-07-01T02:59:09.267Z,994.99
2018-07-01T03:04:30.966Z,995.03
2018-07-01T03:05:41.044Z,995.05
2018-07-01T03:06:51.143Z,995.05
2018-07-01T03:08:00.950Z,995.04
2018-07-01T03:09:10.781Z,995.07
2018-07-01T03:10:20.862Z,995.1
2018-07-01T03:11:30.386Z,995.08
2018-07-01T03:12:40.458Z,995.11
2018-07-01T03:13:50.004Z,995.12
2018-07-01T03:14:59.866Z,995.1
2018-07-01T03:16:09.930Z,995.12
2018-07-01T03:17:19.740Z,995.15
2018-07-01T03:18:29.552Z,995.15
2018-07-01T03:19:38.802Z,995.15
2018-07-01T03:20:48.660Z,995.15
2018-07-01T03:21:58.450Z,995.17
2018-07-01T03:23:07.991Z,995.23
2018-07-01T03:24:17.804Z,995.24
2018-07-01T03:25:27.326Z,995.33
2018-07-01T03:26:37.440Z,995.3
2018-07-01T03:27:47.518Z,995.31
2018-07-01T03:28:57.033Z,995.3
2018-07-01T03:30:06.854Z,995.32
2018-07-01T03:31:16.136Z,995.37
2018-07-01T03:32:25.985Z,995.36
2018-07-01T03:33:36.049Z,995.37
2018-07-01T03:34:46.119Z,995.39
2018-07-01T03:35:55.912Z,995.41
2018-07-01T03:37:05.992Z,995.44
2018-07-01T03:38:16.121Z,995.42
2018-07-01T03:39:25.899Z,995.43
2018-07-01T03:40:35.967Z,995.43
2018-07-01T03:41:46.030Z,995.44
2018-07-01T03:42:56.105Z,995.45
2018-07-01T03:44:05.673Z,995.46
2018-07-01T03:45:14.926Z,995.46
2018-07-01T03:46:24.988Z,995.48
2018-07-01T03:47:35.029Z,995.43
2018-07-01T03:48:44.837Z,995.47
2018-07-01T03:49:54.685Z,995.48
2018-07-01T03:51:04.267Z,995.49
2018-07-01T03:52:14.342Z,995.51
2018-07-01T03:53:24.392Z,995.51
2018-07-01T03:54:34.454Z,995.54
2018-07-01T03:55:44.041Z,995.54
2018-07-01T03:56:54.087Z,995.53
2018-07-01T03:58:04.160Z,995.52
2018-07-01T03:59:14.235Z,995.53
2018-07-01T04:00:24.106Z,995.48
2018-07-01T04:01:33.894Z,995.51
2018-07-01T04:02:43.717Z,995.47
2018-07-01T04:03:53.785Z,995.48
2018-07-01T04:05:03.579Z,995.46
2018-07-01T04:06:13.374Z,995.46
2018-07-01T04:07:23.513Z,995.48
2018-07-01T04:08:33.579Z,995.53
2018-07-01T04:09:43.682Z,995.55
2018-07-01T04:10:53.485Z,995.54
2018-07-01T04:12:03.541Z,995.53
2018-07-01T04:13:13.110Z,995.54
2018-07-01T04:14:23.197Z,995.5
2018-07-01T04:15:33.002Z,995.52
2018-07-01T04:16:42.808Z,995.55
2018-07-01T04:17:52.870Z,995.56
2018-07-01T04:19:02.714Z,995.6
2018-07-01T04:20:12.498Z,995.62
2018-07-01T04:21:22.019Z,995.62
2018-07-01T04:22:31.553Z,995.64
2018-07-01T04:23:41.348Z,995.69
2018-07-01T04:24:50.651Z,995.64
2018-07-01T04:26:00.736Z,995.69
2018-07-01T04:27:10.565Z,995.69
2018-07-01T04:28:20.355Z,995.66
2018-07-01T04:29:30.416Z,995.69
2018-07-01T04:30:40.252Z,995.7
2018-07-01T04:31:50.324Z,995.71
2018-07-01T04:32:59.580Z,995.73
2018-07-01T04:34:09.650Z,995.72
2018-07-01T04:35:19.441Z,995.76
2018-07-01T04:36:29.571Z,995.77
2018-07-01T04:37:39.360Z,995.76
2018-07-01T04:38:49.440Z,995.77
2018-07-01T04:39:59.503Z,995.74
2018-07-01T04:41:09.042Z,995.76
2018-07-01T04:42:18.899Z,995.77
2018-07-01T04:43:29.019Z,995.76
2018-07-01T04:44:39.098Z,995.77
2018-07-01T04:45:48.907Z,995.78
2018-07-01T04:46:59.034Z,995.75
2018-07-01T04:48:08.884Z,995.75
2018-07-01T04:49:18.974Z,995.74
2018-07-01T04:50:29.233Z,995.74
2018-07-01T04:51:39.291Z,995.76
2018-07-01T04:52:48.798Z,995.76
2018-07-01T04:53:58.366Z,995.76
2018-07-01T04:55:08.231Z,995.74
2018-07-01T04:56:18.885Z,995.77
2018-07-01T04:57:28.701Z,995.74
2018-07-01T04:58:38.780Z,995.74
2018-07-01T04:59:48.624Z,995.72
2018-07-01T05:00:58.414Z,995.75
2018-07-01T05:02:07.978Z,995.79
2018-07-01T05:03:18.502Z,995.76
2018-07-01T05:04:28.572Z,995.8
2018-07-01T05:05:38.686Z,995.75
2018-07-01T05:06:48.214Z,995.78
2018-07-01T05:07:58.298Z,995.78
2018-07-01T05:09:08.093Z,995.79
2018-07-01T05:10:18.163Z,995.73
2018-07-01T05:11:28.025Z,995.78
2018-07-01T05:12:37.554Z,995.81
2018-07-01T05:13:47.642Z,995.8
2018-07-01T05:14:57.702Z,995.79
2018-07-01T05:16:07.237Z,995.81
2018-07-01T05:17:17.093Z,995.82
2018-07-01T05:18:26.901Z,995.77
2018-07-01T05:19:36.993Z,995.79
2018-07-01T05:20:47.064Z,995.75
2018-07-01T05:21:57.133Z,995.79
2018-07-01T05:23:07.246Z,995.78
2018-07-01T05:24:17.310Z,995.8
2018-07-01T05:25:27.148Z,995.75
2018-07-01T05:26:36.959Z,995.78
2018-07-01T05:27:47.039Z,995.79
2018-07-01T05:28:56.909Z,995.77
2018-07-01T05:30:06.705Z,995.82
2018-07-01T05:31:16.246Z,995.79
2018-07-01T05:32:25.512Z,995.78
2018-07-01T05:33:35.305Z,995.8
2018-07-01T05:34:45.319Z,995.78
2018-07-01T05:35:55.392Z,995.77
2018-07-01T05:37:05.500Z,995.76
2018-07-01T05:38:15.552Z,995.78
2018-07-01T05:39:25.073Z,995.78
2018-07-01T05:40:34.914Z,995.77
2018-07-01T05:41:45.007Z,995.8
2018-07-01T05:42:55.071Z,995.8
2018-07-01T05:44:05.129Z,995.78
2018-07-01T05:45:15.200Z,995.76
2018-07-01T05:46:25.049Z,995.75
2018-07-01T05:47:34.856Z,995.76
2018-07-01T05:48:44.114Z,995.72
2018-07-01T05:49:54.200Z,995.74
2018-07-01T05:51:04.288Z,995.74
2018-07-01T05:52:14.127Z,995.72
2018-07-01T05:53:23.909Z,995.72
2018-07-01T05:54:33.446Z,995.71
2018-07-01T05:55:43.237Z,995.69
2018-07-01T05:56:53.035Z,995.72
2018-07-01T05:58:03.258Z,995.7
2018-07-01T05:59:12.791Z,995.67
2018-07-01T06:00:22.848Z,995.73
2018-07-01T06:01:32.975Z,995.7
2018-07-01T06:02:43.036Z,995.77
2018-07-01T06:03:53.154Z,995.75
2018-07-01T06:05:02.940Z,995.78
2018-07-01T06:06:13.016Z,995.8
2018-07-01T06:07:22.867Z,995.76
2018-07-01T06:08:32.682Z,995.77
2018-07-01T06:09:43.003Z,995.75
2018-07-01T06:10:53.067Z,995.76
2018-07-01T06:12:03.139Z,995.78
2018-07-01T06:13:12.944Z,995.83
2018-07-01T06:14:22.998Z,995.89
2018-07-01T06:15:32.573Z,995.87
2018-07-01T06:16:42.419Z,995.89
2018-07-01T06:17:52.718Z,995.93
2018-07-01T06:19:02.540Z,995.94
2018-07-01T06:20:12.349Z,995.97
2018-07-01T06:21:22.491Z,995.98
2018-07-01T06:22:32.550Z,995.93
2018-07-01T06:23:42.620Z,995.93
2018-07-01T06:24:52.706Z,995.94
2018-07-01T06:26:02.232Z,995.96
2018-07-01T06:27:11.543Z,995.98
2018-07-01T06:28:21.613Z,995.96
2018-07-01T06:29:31.417Z,995.96
2018-07-01T06:30:41.200Z,995.97
2018-07-01T06:31:51.261Z,995.96
2018-07-01T06:33:01.102Z,995.95
2018-07-01T06:34:10.904Z,995.95
2018-07-01T06:35:20.987Z,995.96
2018-07-01T06:36:43.544Z,995.98
2018-07-01T06:37:53.647Z,995.97
2018-07-01T06:39:04.064Z,995.93
2018-07-01T06:40:14.117Z,995.95
2018-07-01T06:41:24.182Z,996.01
2018-07-01T06:42:33.700Z,996
2018-07-01T06:43:43.000Z,995.97
2018-07-01T06:44:52.807Z,995.96
2018-07-01T06:46:02.610Z,996
2018-07-01T06:47:12.141Z,995.98
2018-07-01T06:48:22.218Z,995.99
2018-07-01T06:49:31.601Z,995.93
2018-07-01T06:50:41.487Z,995.95
2018-07-01T06:51:51.292Z,995.94
2018-07-01T06:53:01.358Z,995.92
2018-07-01T06:54:11.153Z,995.93
2018-07-01T06:55:21.280Z,995.98
2018-07-01T06:56:30.870Z,995.97
2018-07-01T06:57:41.095Z,995.97
2018-07-01T06:58:50.915Z,996.01
2018-07-01T07:00:00.984Z,995.96
2018-07-01T07:01:10.838Z,995.97
2018-07-01T07:02:20.664Z,995.93
2018-07-01T07:03:31.074Z,995.88
2018-07-01T07:04:41.156Z,995.91
2018-07-01T07:05:51.229Z,995.92
2018-07-01T07:07:01.082Z,995.95
2018-07-01T07:08:10.890Z,995.96
2018-07-01T07:09:20.964Z,995.93
2018-07-01T07:10:30.750Z,995.96
2018-07-01T07:11:40.852Z,995.96
2018-07-01T07:12:50.969Z,995.93
2018-07-01T07:14:01.031Z,995.94
2018-07-01T07:15:11.118Z,995.95
2018-07-01T07:16:21.259Z,995.92
2018-07-01T07:17:31.561Z,995.95
2018-07-01T07:18:41.149Z,995.95
2018-07-01T07:19:50.425Z,995.91
2018-07-01T07:21:00.218Z,995.9
2018-07-01T07:22:10.286Z,995.86
2018-07-01T07:23:20.094Z,995.89
2018-07-01T07:24:30.233Z,995.89
2018-07-01T07:25:40.584Z,995.88
2018-07-01T07:26:50.387Z,995.84
2018-07-01T07:28:00.461Z,995.93
2018-07-01T07:29:10.541Z,995.94
2018-07-01T07:30:20.664Z,995.92
2018-07-01T07:31:30.726Z,995.92
2018-07-01T07:32:40.267Z,995.91
2018-07-01T07:33:50.340Z,995.87
2018-07-01T07:35:00.405Z,995.86
2018-07-01T07:36:10.523Z,995.87
2018-07-01T07:37:20.594Z,995.89
2018-07-01T07:38:30.661Z,995.82
2018-07-01T07:39:40.730Z,995.82
2018-07-01T07:40:50.544Z,995.83
2018-07-01T07:42:00.671Z,995.86
2018-07-01T07:43:10.474Z,995.85
2018-07-01T07:44:20.557Z,995.84
2018-07-01T07:45:30.370Z,995.87
2018-07-01T07:46:40.426Z,995.84
2018-07-01T07:47:50.288Z,995.84
2018-07-01T07:49:00.344Z,995.8
2018-07-01T07:50:10.408Z,995.78
2018-07-01T07:51:20.465Z,995.8
2018-07-01T07:52:30.549Z,995.78
2018-07-01T07:53:40.394Z,995.78
2018-07-01T07:54:50.193Z,995.79
2018-07-01T07:55:59.463Z,995.81
2018-07-01T07:57:09.529Z,995.78
2018-07-01T07:58:19.346Z,995.84
2018-07-01T07:59:28.915Z,995.81
2018-07-01T08:00:38.703Z,995.8
2018-07-01T08:01:48.780Z,995.8
2018-07-01T08:02:58.724Z,995.81
2018-07-01T08:04:08.522Z,995.8
2018-07-01T08:05:18.386Z,995.81
2018-07-01T08:06:28.457Z,995.84
2018-07-01T08:07:37.990Z,995.85
2018-07-01T08:08:48.073Z,995.84
2018-07-01T08:09:58.178Z,995.84
2018-07-01T08:11:08.321Z,995.86
2018-07-01T08:12:18.384Z,995.89
2018-07-01T08:13:28.179Z,995.87
2018-07-01T08:14:37.995Z,995.83
2018-07-01T08:15:47.796Z,995.83
2018-07-01T08:16:57.652Z,995.8
2018-07-01T08:18:07.460Z,995.79
2018-07-01T08:19:17.536Z,995.85
2018-07-01T08:20:27.608Z,995.76
2018-07-01T08:21:37.669Z,995.78
2018-07-01T08:22:47.256Z,995.77
2018-07-01T08:23:56.799Z,995.77
2018-07-01T08:25:06.597Z,995.74
2018-07-01T08:26:16.408Z,995.71
2018-07-01T08:27:26.497Z,995.68
2018-07-01T08:28:36.636Z,995.71
2018-07-01T08:29:46.712Z,995.7
2018-07-01T08:30:56.526Z,995.7
2018-07-01T08:32:06.335Z,995.72
2018-07-01T08:33:16.405Z,995.68
2018-07-01T08:34:26.579Z,995.67
2018-07-01T08:35:36.876Z,995.66
2018-07-01T08:36:46.680Z,995.63
2018-07-01T08:37:56.474Z,995.65
2018-07-01T08:39:06.016Z,995.63
2018-07-01T08:40:16.167Z,995.62
2018-07-01T08:41:26.572Z,995.57
2018-07-01T08:42:36.110Z,995.56
2018-07-01T08:43:46.192Z,995.55
2018-07-01T08:44:56.267Z,995.55
2018-07-01T08:46:06.403Z,995.51
2018-07-01T08:47:16.260Z,995.53
2018-07-01T08:48:26.333Z,995.51
2018-07-01T08:49:36.129Z,995.52
2018-07-01T08:50:45.953Z,995.53
2018-07-01T08:51:56.096Z,995.52
2018-07-01T08:53:06.172Z,995.52
2018-07-01T08:54:15.713Z,995.52
2018-07-01T08:55:25.522Z,995.52
2018-07-01T08:56:35.595Z,995.49
2018-07-01T08:57:44.902Z,995.51
2018-07-01T08:58:55.138Z,995.56
2018-07-01T09:00:04.960Z,995.54
2018-07-01T09:01:14.740Z,995.55
2018-07-01T09:02:24.812Z,995.57
2018-07-01T09:03:34.661Z,995.52
2018-07-01T09:04:44.724Z,995.56
2018-07-01T09:05:54.261Z,995.59
2018-07-01T09:07:03.782Z,995.53
2018-07-01T09:08:13.595Z,995.52
2018-07-01T09:09:23.715Z,995.48
2018-07-01T09:10:33.504Z,995.5
2018-07-01T09:11:43.574Z,995.46
2018-07-01T09:12:53.369Z,995.5
2018-07-01T09:14:03.447Z,995.56
2018-07-01T09:15:13.296Z,995.42
2018-07-01T09:16:23.101Z,995.43
2018-07-01T09:17:33.175Z,995.37
2018-07-01T09:18:42.983Z,995.39
2018-07-01T09:19:52.521Z,995.43
2018-07-01T09:21:02.370Z,995.4
2018-07-01T09:22:11.646Z,995.35
2018-07-01T09:23:21.745Z,995.31
2018-07-01T09:24:32.011Z,995.34
2018-07-01T09:25:41.811Z,995.3
2018-07-01T09:26:51.390Z,995.31
2018-07-01T09:28:01.465Z,995.26
2018-07-01T09:29:11.003Z,995.27
2018-07-01T09:30:21.091Z,995.28
2018-07-01T09:31:30.895Z,995.26
2018-07-01T09:32:40.467Z,995.25
2018-07-01T09:33:50.261Z,995.25
2018-07-01T09:34:59.807Z,995.26
2018-07-01T09:36:09.641Z,995.23
2018-07-01T09:37:19.184Z,995.23
2018-07-01T09:38:28.785Z,995.19
2018-07-01T09:39:38.578Z,995.19
2018-07-01T09:40:48.379Z,995.22
2018-07-01T09:41:58.448Z,995.13
2018-07-01T09:43:08.538Z,995.16
2018-07-01T09:44:18.197Z,995.11
2018-07-01T09:45:28.055Z,995.09
2018-07-01T09:46:38.128Z,995.07
2018-07-01T09:47:47.925Z,995.04
2018-07-01T09:48:57.731Z,995.1
2018-07-01T09:50:07.603Z,995.05
2018-07-01T09:51:17.741Z,995.03
2018-07-01T09:52:27.012Z,995.04
2018-07-01T09:53:36.827Z,995.05
2018-07-01T09:54:46.626Z,995.03
2018-07-01T09:55:56.815Z,994.97
2018-07-01T09:57:06.065Z,995.02
2018-07-01T09:58:16.145Z,994.97
2018-07-01T09:59:26.222Z,994.97
2018-07-01T10:00:36.297Z,995.01
2018-07-01T10:01:46.426Z,995
2018-07-01T10:02:56.221Z,994.99
2018-07-01T10:04:06.281Z,995
2018-07-01T10:05:15.815Z,994.97
2018-07-01T10:06:25.898Z,994.96
2018-07-01T10:07:36.004Z,994.93
2018-07-01T10:08:46.085Z,994.95
2018-07-01T10:09:56.158Z,994.97
2018-07-01T10:11:06.236Z,994.97
2018-07-01T10:12:15.767Z,994.97
2018-07-01T10:13:25.883Z,994.97
2018-07-01T10:14:35.966Z,995.01
2018-07-01T10:15:45.773Z,994.95
2018-07-01T10:16:55.913Z,994.97
2018-07-01T10:18:06.016Z,994.92
2018-07-01T10:19:15.861Z,994.92
2018-07-01T10:20:25.943Z,994.89
2018-07-01T10:21:36.020Z,994.91
2018-07-01T10:22:45.565Z,994.92
2018-07-01T10:23:55.626Z,994.91
2018-07-01T10:25:04.935Z,994.92
2018-07-01T10:26:15.012Z,994.92
2018-07-01T10:27:24.867Z,994.93
2018-07-01T10:28:34.960Z,994.89
2018-07-01T10:29:45.031Z,994.93
2018-07-01T10:30:54.886Z,994.88
2018-07-01T10:32:04.677Z,994.88
2018-07-01T10:33:14.478Z,994.92
2018-07-01T10:34:24.290Z,994.88
2018-07-01T10:35:34.098Z,994.87
2018-07-01T10:36:43.677Z,994.87
2018-07-01T10:37:53.750Z,994.86
2018-07-01T10:39:03.862Z,994.83
2018-07-01T10:40:13.481Z,994.81
2018-07-01T10:41:23.602Z,994.79
2018-07-01T10:42:33.198Z,994.81
2018-07-01T10:43:43.264Z,994.73
2018-07-01T10:44:52.796Z,994.69
2018-07-01T10:46:02.335Z,994.68
2018-07-01T10:47:11.874Z,994.65
2018-07-01T10:48:22.001Z,994.67
2018-07-01T10:49:31.534Z,994.62
2018-07-01T10:50:41.632Z,994.65
2018-07-01T10:51:51.720Z,994.65
2018-07-01T10:53:01.545Z,994.69
2018-07-01T10:54:10.916Z,994.65
2018-07-01T10:55:21.055Z,994.62
2018-07-01T10:56:31.154Z,994.59
2018-07-01T10:57:40.805Z,994.6
2018-07-01T10:58:51.185Z,994.57
2018-07-01T11:00:01.308Z,994.6
2018-07-01T11:01:11.100Z,994.56
2018-07-01T11:02:20.912Z,994.53
2018-07-01T11:03:30.979Z,994.55
2018-07-01T11:04:41.065Z,994.51
2018-07-01T11:05:51.196Z,994.52
2018-07-01T11:07:00.971Z,994.47
2018-07-01T11:08:10.770Z,994.5
2018-07-01T11:09:20.840Z,994.48
2018-07-01T11:10:30.900Z,994.46
2018-07-01T11:11:39.943Z,994.48
2018-07-01T11:12:50.580Z,994.47
2018-07-01T11:14:00.126Z,994.4
2018-07-01T11:15:09.673Z,994.37
2018-07-01T11:16:19.212Z,994.35
2018-07-01T11:17:29.086Z,994.36
2018-07-01T11:18:38.900Z,994.32
2018-07-01T11:19:48.714Z,994.3
2018-07-01T11:20:58.529Z,994.3
2018-07-01T11:22:07.540Z,994.27
2018-07-01T11:23:17.676Z,994.25
2018-07-01T11:24:27.761Z,994.29
2018-07-01T11:25:37.822Z,994.27
2018-07-01T11:26:47.725Z,994.29
2018-07-01T11:27:58.961Z,994.29
2018-07-01T11:29:08.549Z,994.29
2018-07-01T11:30:18.629Z,994.25
2018-07-01T11:31:28.727Z,994.29
2018-07-01T11:32:38.299Z,994.29
2018-07-01T11:33:48.340Z,994.27
2018-07-01T11:34:58.209Z,994.26
2018-07-01T11:36:08.236Z,994.24
2018-07-01T11:37:18.322Z,994.25
2018-07-01T11:38:27.865Z,994.24
2018-07-01T11:39:37.954Z,994.26
2018-07-01T11:40:47.552Z,994.32
2018-07-01T11:41:57.624Z,994.32
2018-07-01T11:43:07.432Z,994.36
2018-07-01T11:44:17.247Z,994.45
2018-07-01T11:45:26.512Z,994.43
2018-07-01T11:46:36.358Z,994.39
2018-07-01T11:47:46.424Z,994.46
2018-07-01T11:48:56.504Z,994.38
2018-07-01T11:50:06.577Z,994.33
2018-07-01T11:51:16.680Z,994.31
2018-07-01T11:52:26.563Z,994.32
2018-07-01T11:53:36.624Z,994.36
2018-07-01T11:54:46.433Z,994.32
2018-07-01T11:55:55.988Z,994.27
2018-07-01T11:57:05.813Z,994.26
2018-07-01T11:58:15.951Z,994.16
2018-07-01T11:59:26.051Z,994.25
2018-07-01T12:00:36.127Z,994.13
2018-07-01T12:01:45.436Z,994.17
2018-07-01T12:02:55.663Z,994.09
2018-07-01T12:04:05.252Z,994.11
2018-07-01T12:05:17.182Z,994.07
2018-07-01T12:06:27.187Z,994.09
2018-07-01T12:07:37.003Z,994.14
2018-07-01T12:08:47.100Z,994.06
2018-07-01T12:09:57.248Z,994.07
2018-07-01T12:11:07.069Z,993.97
2018-07-01T12:12:17.164Z,994
2018-07-01T12:13:26.965Z,993.97
2018-07-01T12:14:36.761Z,993.97
2018-07-01T12:15:46.617Z,993.99
2018-07-01T12:16:55.936Z,993.99
2018-07-01T12:18:05.756Z,993.98
2018-07-01T12:19:15.848Z,993.95
2018-07-01T12:20:25.665Z,993.89
2018-07-01T12:21:35.529Z,993.95
2018-07-01T12:22:45.341Z,993.98
2018-07-01T12:23:54.636Z,993.97
2018-07-01T12:25:04.467Z,993.99
2018-07-01T12:26:14.297Z,994
2018-07-01T12:27:24.437Z,993.98
2018-07-01T12:28:34.530Z,993.9
2018-07-01T12:29:44.727Z,993.82
2018-07-01T12:30:54.806Z,993.87
2018-07-01T12:32:04.357Z,993.92
2018-07-01T12:33:14.482Z,993.84
2018-07-01T12:34:24.291Z,993.77
2018-07-01T12:35:33.839Z,993.88
2018-07-01T12:36:43.943Z,993.82
2018-07-01T12:37:54.050Z,993.84
2018-07-01T12:39:03.915Z,993.84
2018-07-01T12:40:13.730Z,993.85
2018-07-01T12:41:23.538Z,993.79
2018-07-01T12:42:33.359Z,993.76
2018-07-01T12:43:43.437Z,993.88
2018-07-01T12:44:53.306Z,993.7
2018-07-01T12:46:03.130Z,993.83
2018-07-01T12:47:13.221Z,993.85
2018-07-01T12:48:23.331Z,993.72
2018-07-01T12:49:33.429Z,993.84
2018-07-01T12:50:43.319Z,993.83
2018-07-01T12:51:52.869Z,993.77
2018-07-01T12:53:02.684Z,993.89
2018-07-01T12:54:12.514Z,993.82
2018-07-01T12:55:22.599Z,993.71
2018-07-01T12:56:32.483Z,993.71
2018-07-01T12:57:42.788Z,993.65
2018-07-01T12:58:52.893Z,993.72
2018-07-01T13:00:02.709Z,993.71
2018-07-01T13:01:12.791Z,993.7
2018-07-01T13:02:22.951Z,993.67
2018-07-01T13:03:32.855Z,993.63
2018-07-01T13:04:42.941Z,993.61
2018-07-01T13:05:53.037Z,993.55
2018-07-01T13:07:03.144Z,993.47
2018-07-01T13:08:12.749Z,993.58
2018-07-01T13:09:22.845Z,993.59
2018-07-01T13:10:32.662Z,993.55
2018-07-01T13:11:42.486Z,993.5
2018-07-01T13:12:52.387Z,993.54
2018-07-01T13:14:02.532Z,993.61
2018-07-01T13:15:12.641Z,993.49
2018-07-01T13:16:22.748Z,993.52
2018-07-01T13:17:32.837Z,993.5
2018-07-01T13:18:42.642Z,993.53
2018-07-01T13:19:52.792Z,993.53
2018-07-01T13:21:02.619Z,993.58
2018-07-01T13:22:12.447Z,993.6
2018-07-01T13:23:22.524Z,993.54
2018-07-01T13:24:32.351Z,993.58
2018-07-01T13:25:42.228Z,993.59
2018-07-01T13:26:52.327Z,993.6
2018-07-01T13:28:02.138Z,993.58
2018-07-01T13:29:11.698Z,993.62
2018-07-01T13:30:21.259Z,993.68
2018-07-01T13:31:30.863Z,993.76
2018-07-01T13:32:40.678Z,993.79
2018-07-01T13:33:50.785Z,993.79
2018-07-01T13:35:00.890Z,993.81
2018-07-01T13:36:10.992Z,993.82
2018-07-01T13:37:21.156Z,993.81
2018-07-01T13:38:30.981Z,993.98
2018-07-01T13:39:40.547Z,993.87
2018-07-01T13:40:50.624Z,993.84
2018-07-01T13:42:00.446Z,993.92
2018-07-01T13:43:10.045Z,993.85
2018-07-01T13:44:20.133Z,993.83
2018-07-01T13:45:30.224Z,993.89
2018-07-01T13:46:40.314Z,993.93
2018-07-01T13:47:49.322Z,993.93
2018-07-01T13:48:59.456Z,993.83
2018-07-01T13:50:09.061Z,993.84
2018-07-01T13:51:18.878Z,993.69
2018-07-01T13:52:28.972Z,993.76
2018-07-01T13:53:38.788Z,993.76
2018-07-01T13:54:48.662Z,993.85
2018-07-01T13:55:58.813Z,993.85
2018-07-01T13:57:08.976Z,993.76
2018-07-01T13:58:19.303Z,993.68
2018-07-01T13:59:29.114Z,993.73
2018-07-01T14:00:39.048Z,993.9
2018-07-01T14:01:49.478Z,993.69
2018-07-01T14:02:59.383Z,993.77
2018-07-01T14:04:09.001Z,993.7
2018-07-01T14:05:19.475Z,993.77
2018-07-01T14:06:29.687Z,993.71
2018-07-01T14:07:40.075Z,993.71
2018-07-01T14:08:49.893Z,993.65
2018-07-01T14:09:59.709Z,993.66
2018-07-01T14:11:09.828Z,993.58
2018-07-01T14:12:19.978Z,993.61
2018-07-01T14:13:30.087Z,993.56
2018-07-01T14:14:40.196Z,993.51
2018-07-01T14:15:50.295Z,993.45
2018-07-01T14:17:00.133Z,993.32
2018-07-01T14:18:09.737Z,993.2
2018-07-01T14:19:19.286Z,993.17
2018-07-01T14:20:29.115Z,993.17
2018-07-01T14:21:39.207Z,993.15
2018-07-01T14:22:49.007Z,993.14
2018-07-01T14:23:59.138Z,993.19
2018-07-01T14:25:08.694Z,993.26
2018-07-01T14:26:18.532Z,993.26
2018-07-01T14:27:28.347Z,993.31
2018-07-01T14:28:38.441Z,993.38
2018-07-01T14:29:48.686Z,993.26
2018-07-01T14:30:58.329Z,993.13
2018-07-01T14:32:07.874Z,993.11
2018-07-01T14:33:17.703Z,993.3
2018-07-01T14:34:27.545Z,993.51
2018-07-01T14:35:37.761Z,993.57
2018-07-01T14:36:47.746Z,993.65
2018-07-01T14:37:57.283Z,993.79
2018-07-01T14:39:06.839Z,993.91
2018-07-01T14:40:16.661Z,993.94